sensor_id;sensor_type;location;lat;lon;timestamp;pressure;altitude;pressure_sealevel;temperature;humidity
80180;BME280;69505;52.134;5.438;2023-05-16T00:01:16;102090.91;;;9.03;82.77
80180;BME280;69505;52.134;5.438;2023-05-16T00:03:43;102087.84;;;8.93;81.10
80180;BME280;69505;52.134;5.438;2023-05-16T00:06:10;102099.47;;;8.91;82.73
80180;BME280;69505;52.134;5.438;2023-05-16T00:08:37;102094.41;;;8.86;81.24
80180;BME280;69505;52.134;5.438;2023-05-16T00:11:04;102103.69;;;8.95;82.02
80180;BME280;69505;52.134;5.438;2023-05-16T00:13:30;102104.22;;;9.02;81.29
80180;BME280;69505;52.134;5.438;2023-05-16T00:15:57;102105.91;;;9.03;80.73
80180;BME280;69505;52.134;5.438;2023-05-16T00:18:27;102110.22;;;9.05;80.20
80180;BME280;69505;52.134;5.438;2023-05-16T00:20:54;102104.06;;;9.05;79.72
80180;BME280;69505;52.134;5.438;2023-05-16T00:23:21;102108.56;;;9.03;79.46
80180;BME280;69505;52.134;5.438;2023-05-16T00:25:47;102103.44;;;9.00;79.04
80180;BME280;69505;52.134;5.438;2023-05-16T00:28:14;102113.25;;;8.98;79.94
80180;BME280;69505;52.134;5.438;2023-05-16T00:30:41;102099.53;;;8.89;81.50
80180;BME280;69505;52.134;5.438;2023-05-16T00:33:07;102098.97;;;8.83;82.07
80180;BME280;69505;52.134;5.438;2023-05-16T00:35:34;102096.00;;;8.71;81.95
80180;BME280;69505;52.134;5.438;2023-05-16T00:38:00;102093.56;;;8.67;82.25
80180;BME280;69505;52.134;5.438;2023-05-16T00:40:27;102102.75;;;8.60;81.99
80180;BME280;69505;52.134;5.438;2023-05-16T00:42:54;102102.03;;;8.56;82.92
80180;BME280;69505;52.134;5.438;2023-05-16T00:45:21;102109.41;;;8.49;83.76
80180;BME280;69505;52.134;5.438;2023-05-16T00:47:47;102110.66;;;8.42;84.16
80180;BME280;69505;52.134;5.438;2023-05-16T00:50:15;102102.97;;;8.36;82.99
80180;BME280;69505;52.134;5.438;2023-05-16T00:52:42;102107.59;;;8.31;82.87
80180;BME280;69505;52.134;5.438;2023-05-16T00:55:09;102105.09;;;8.28;83.77
80180;BME280;69505;52.134;5.438;2023-05-16T00:57:38;102106.91;;;8.27;83.49
80180;BME280;69505;52.134;5.438;2023-05-16T01:00:06;102111.25;;;8.28;83.32
80180;BME280;69505;52.134;5.438;2023-05-16T01:02:33;102113.09;;;8.26;84.45
80180;BME280;69505;52.134;5.438;2023-05-16T01:05:00;102105.50;;;8.19;84.21
80180;BME280;69505;52.134;5.438;2023-05-16T01:07:26;102094.28;;;8.13;83.66
80180;BME280;69505;52.134;5.438;2023-05-16T01:09:53;102104.81;;;8.15;83.65
80180;BME280;69505;52.134;5.438;2023-05-16T01:12:26;102106.97;;;8.07;84.63
80180;BME280;69505;52.134;5.438;2023-05-16T01:20:15;102114.78;;;7.89;84.66
80180;BME280;69505;52.134;5.438;2023-05-16T01:25:38;102116.16;;;7.79;84.39
80180;BME280;69505;52.134;5.438;2023-05-16T01:28:15;102125.19;;;7.73;85.08
80180;BME280;69505;52.134;5.438;2023-05-16T01:30:42;102107.69;;;7.71;84.55
80180;BME280;69505;52.134;5.438;2023-05-16T01:33:10;102122.69;;;7.70;85.06
80180;BME280;69505;52.134;5.438;2023-05-16T01:35:49;102118.53;;;7.65;84.62
80180;BME280;69505;52.134;5.438;2023-05-16T01:38:35;102123.09;;;7.61;85.23
80180;BME280;69505;52.134;5.438;2023-05-16T01:43:41;102111.19;;;7.51;85.30
80180;BME280;69505;52.134;5.438;2023-05-16T01:46:11;102117.47;;;7.48;85.52
80180;BME280;69505;52.134;5.438;2023-05-16T01:48:54;102114.91;;;7.47;85.55
80180;BME280;69505;52.134;5.438;2023-05-16T01:51:27;102119.59;;;7.40;85.58
80180;BME280;69505;52.134;5.438;2023-05-16T01:53:59;102125.88;;;7.38;85.91
80180;BME280;69505;52.134;5.438;2023-05-16T01:56:29;102124.13;;;7.37;85.37
80180;BME280;69505;52.134;5.438;2023-05-16T01:58:58;102125.03;;;7.37;85.79
80180;BME280;69505;52.134;5.438;2023-05-16T02:01:24;102127.84;;;7.32;85.38
80180;BME280;69505;52.134;5.438;2023-05-16T02:03:51;102127.84;;;7.32;85.42
80180;BME280;69505;52.134;5.438;2023-05-16T02:06:18;102134.97;;;7.30;85.35
80180;BME280;69505;52.134;5.438;2023-05-16T02:08:44;102135.13;;;7.27;86.00
80180;BME280;69505;52.134;5.438;2023-05-16T02:11:11;102133.38;;;7.26;85.53
80180;BME280;69505;52.134;5.438;2023-05-16T02:13:37;102139.59;;;7.25;85.66
80180;BME280;69505;52.134;5.438;2023-05-16T02:16:04;102138.94;;;7.20;85.86
80180;BME280;69505;52.134;5.438;2023-05-16T02:18:31;102138.22;;;7.17;86.17
80180;BME280;69505;52.134;5.438;2023-05-16T02:20:58;102141.41;;;7.25;86.19
80180;BME280;69505;52.134;5.438;2023-05-16T02:23:24;102138.00;;;7.21;86.26
80180;BME280;69505;52.134;5.438;2023-05-16T02:25:51;102141.66;;;7.19;85.67
80180;BME280;69505;52.134;5.438;2023-05-16T02:28:17;102143.50;;;7.17;85.79
80180;BME280;69505;52.134;5.438;2023-05-16T02:30:44;102142.66;;;7.16;86.11
80180;BME280;69505;52.134;5.438;2023-05-16T02:33:10;102144.34;;;7.17;86.77
80180;BME280;69505;52.134;5.438;2023-05-16T02:35:37;102147.78;;;7.19;85.69
80180;BME280;69505;52.134;5.438;2023-05-16T02:38:03;102144.28;;;7.19;86.03
80180;BME280;69505;52.134;5.438;2023-05-16T02:40:30;102155.72;;;7.19;87.07
80180;BME280;69505;52.134;5.438;2023-05-16T02:42:57;102143.59;;;7.14;86.12
80180;BME280;69505;52.134;5.438;2023-05-16T02:45:23;102147.00;;;7.17;85.89
80180;BME280;69505;52.134;5.438;2023-05-16T02:47:50;102153.06;;;7.19;86.11
80180;BME280;69505;52.134;5.438;2023-05-16T02:50:17;102149.78;;;7.14;85.98
80180;BME280;69505;52.134;5.438;2023-05-16T02:52:43;102149.78;;;7.14;86.47
80180;BME280;69505;52.134;5.438;2023-05-16T02:55:10;102147.13;;;7.14;86.25
80180;BME280;69505;52.134;5.438;2023-05-16T02:57:57;102147.25;;;7.11;86.25
80180;BME280;69505;52.134;5.438;2023-05-16T03:00:23;102153.22;;;7.16;85.91
80180;BME280;69505;52.134;5.438;2023-05-16T03:02:50;102156.91;;;7.12;86.58
80180;BME280;69505;52.134;5.438;2023-05-16T03:05:17;102157.94;;;7.08;87.15
80180;BME280;69505;52.134;5.438;2023-05-16T03:07:43;102160.66;;;7.06;86.89
80180;BME280;69505;52.134;5.438;2023-05-16T03:10:10;102164.28;;;7.04;86.87
80180;BME280;69505;52.134;5.438;2023-05-16T03:12:37;102171.41;;;7.02;87.28
80180;BME280;69505;52.134;5.438;2023-05-16T03:15:04;102164.38;;;7.01;87.13
80180;BME280;69505;52.134;5.438;2023-05-16T03:17:31;102164.53;;;6.98;87.09
80180;BME280;69505;52.134;5.438;2023-05-16T03:19:57;102168.63;;;7.05;86.17
80180;BME280;69505;52.134;5.438;2023-05-16T03:22:24;102167.81;;;7.03;86.70
80180;BME280;69505;52.134;5.438;2023-05-16T03:24:50;102165.19;;;7.03;86.43
80180;BME280;69505;52.134;5.438;2023-05-16T03:27:17;102170.50;;;7.01;87.29
80180;BME280;69505;52.134;5.438;2023-05-16T03:29:44;102169.81;;;6.98;87.01
80180;BME280;69505;52.134;5.438;2023-05-16T03:32:10;102182.97;;;6.99;87.01
80180;BME280;69505;52.134;5.438;2023-05-16T03:34:37;102179.56;;;6.96;86.46
80180;BME280;69505;52.134;5.438;2023-05-16T03:37:03;102187.59;;;6.93;87.45
80180;BME280;69505;52.134;5.438;2023-05-16T03:39:30;102171.75;;;6.93;86.48
80180;BME280;69505;52.134;5.438;2023-05-16T03:41:56;102176.22;;;6.90;86.68
80180;BME280;69505;52.134;5.438;2023-05-16T03:44:23;102179.69;;;6.93;86.60
80180;BME280;69505;52.134;5.438;2023-05-16T03:46:49;102185.91;;;6.91;86.36
80180;BME280;69505;52.134;5.438;2023-05-16T03:49:18;102182.41;;;6.91;86.81
80180;BME280;69505;52.134;5.438;2023-05-16T03:51:46;102189.19;;;6.97;85.54
80180;BME280;69505;52.134;5.438;2023-05-16T03:54:12;102180.56;;;6.93;85.85
80180;BME280;69505;52.134;5.438;2023-05-16T03:56:39;102191.19;;;6.91;85.66
80180;BME280;69505;52.134;5.438;2023-05-16T03:59:06;102196.47;;;6.91;85.99
80180;BME280;69505;52.134;5.438;2023-05-16T04:01:32;102186.97;;;6.86;85.49
80180;BME280;69505;52.134;5.438;2023-05-16T04:03:59;102196.31;;;6.95;84.87
80180;BME280;69505;52.134;5.438;2023-05-16T04:06:25;102194.63;;;6.94;84.98
80180;BME280;69505;52.134;5.438;2023-05-16T04:08:52;102200.00;;;6.90;85.83
80180;BME280;69505;52.134;5.438;2023-05-16T04:11:18;102194.84;;;6.87;85.71
80180;BME280;69505;52.134;5.438;2023-05-16T04:13:45;102207.22;;;6.87;84.70
80180;BME280;69505;52.134;5.438;2023-05-16T04:16:11;102203.81;;;6.83;85.85
80180;BME280;69505;52.134;5.438;2023-05-16T04:18:38;102199.19;;;6.88;84.96
80180;BME280;69505;52.134;5.438;2023-05-16T04:21:05;102198.09;;;6.94;84.92
80180;BME280;69505;52.134;5.438;2023-05-16T04:23:31;102213.91;;;6.96;84.95
80180;BME280;69505;52.134;5.438;2023-05-16T04:25:58;102200.75;;;6.94;85.53
80180;BME280;69505;52.134;5.438;2023-05-16T04:28:25;102206.78;;;6.98;85.45
80180;BME280;69505;52.134;5.438;2023-05-16T04:30:51;102209.44;;;6.98;85.79
80180;BME280;69505;52.134;5.438;2023-05-16T04:33:19;102206.78;;;6.98;85.06
80180;BME280;69505;52.134;5.438;2023-05-16T04:35:45;102220.41;;;7.09;84.62
80180;BME280;69505;52.134;5.438;2023-05-16T04:38:12;102221.34;;;7.08;84.72
80180;BME280;69505;52.134;5.438;2023-05-16T04:40:38;102217.78;;;7.09;84.69
80180;BME280;69505;52.134;5.438;2023-05-16T04:43:07;102228.47;;;7.06;85.38
80180;BME280;69505;52.134;5.438;2023-05-16T04:45:33;102224.34;;;6.99;86.45
80180;BME280;69505;52.134;5.438;2023-05-16T04:48:03;102230.41;;;7.01;85.33
80180;BME280;69505;52.134;5.438;2023-05-16T04:50:29;102226.94;;;7.00;85.05
80180;BME280;69505;52.134;5.438;2023-05-16T04:52:56;102231.22;;;7.03;85.41
80180;BME280;69505;52.134;5.438;2023-05-16T04:55:23;102231.13;;;7.06;84.66
80180;BME280;69505;52.134;5.438;2023-05-16T04:57:50;102230.19;;;7.07;85.28
80180;BME280;69505;52.134;5.438;2023-05-16T05:00:16;102233.63;;;7.09;85.72
80180;BME280;69505;52.134;5.438;2023-05-16T05:02:43;102238.72;;;7.14;85.56
80180;BME280;69505;52.134;5.438;2023-05-16T05:05:10;102235.13;;;7.16;84.75
80180;BME280;69505;52.134;5.438;2023-05-16T05:07:36;102244.56;;;7.22;85.17
80180;BME280;69505;52.134;5.438;2023-05-16T05:10:04;102244.25;;;7.29;85.13
80180;BME280;69505;52.134;5.438;2023-05-16T05:12:32;102243.41;;;7.29;85.90
80180;BME280;69505;52.134;5.438;2023-05-16T05:14:59;102235.09;;;7.38;85.71
80180;BME280;69505;52.134;5.438;2023-05-16T05:17:25;102242.91;;;7.41;85.04
80180;BME280;69505;52.134;5.438;2023-05-16T05:19:52;102244.41;;;7.47;84.10
80180;BME280;69505;52.134;5.438;2023-05-16T05:22:18;102244.84;;;7.58;83.86
80180;BME280;69505;52.134;5.438;2023-05-16T05:24:45;102248.81;;;7.68;83.49
80180;BME280;69505;52.134;5.438;2023-05-16T05:27:12;102255.59;;;7.76;83.68
80180;BME280;69505;52.134;5.438;2023-05-16T05:29:39;102254.28;;;7.86;83.64
80180;BME280;69505;52.134;5.438;2023-05-16T05:32:06;102248.72;;;7.92;82.68
80180;BME280;69505;52.134;5.438;2023-05-16T05:34:33;102255.06;;;8.08;82.30
80180;BME280;69505;52.134;5.438;2023-05-16T05:37:00;102259.16;;;8.16;82.37
80180;BME280;69505;52.134;5.438;2023-05-16T05:39:27;102261.66;;;8.19;81.62
80180;BME280;69505;52.134;5.438;2023-05-16T05:41:53;102259.94;;;8.18;82.29
80180;BME280;69505;52.134;5.438;2023-05-16T05:44:20;102264.38;;;8.17;82.13
80180;BME280;69505;52.134;5.438;2023-05-16T05:46:46;102257.09;;;8.22;82.39
80180;BME280;69505;52.134;5.438;2023-05-16T05:49:13;102267.41;;;8.28;82.18
80180;BME280;69505;52.134;5.438;2023-05-16T05:51:40;102265.34;;;8.35;81.99
80180;BME280;69505;52.134;5.438;2023-05-16T05:54:06;102272.19;;;8.41;81.08
80180;BME280;69505;52.134;5.438;2023-05-16T05:56:33;102266.84;;;8.42;81.41
80180;BME280;69505;52.134;5.438;2023-05-16T05:59:00;102275.50;;;8.46;80.20
80180;BME280;69505;52.134;5.438;2023-05-16T06:01:27;102273.50;;;8.51;80.92
80180;BME280;69505;52.134;5.438;2023-05-16T06:03:53;102276.84;;;8.54;80.36
80180;BME280;69505;52.134;5.438;2023-05-16T06:06:20;102284.63;;;8.59;80.47
80180;BME280;69505;52.134;5.438;2023-05-16T06:08:46;102280.81;;;8.65;80.95
80180;BME280;69505;52.134;5.438;2023-05-16T06:11:13;102281.53;;;8.68;79.94
80180;BME280;69505;52.134;5.438;2023-05-16T06:13:39;102279.47;;;8.75;78.92
80180;BME280;69505;52.134;5.438;2023-05-16T06:16:06;102297.59;;;8.84;78.67
80180;BME280;69505;52.134;5.438;2023-05-16T06:18:34;102301.75;;;8.90;78.37
80180;BME280;69505;52.134;5.438;2023-05-16T06:21:01;102299.03;;;8.91;78.36
80180;BME280;69505;52.134;5.438;2023-05-16T06:23:28;102298.75;;;8.98;77.20
80180;BME280;69505;52.134;5.438;2023-05-16T06:25:54;102300.31;;;9.02;78.69
80180;BME280;69505;52.134;5.438;2023-05-16T06:28:21;102298.25;;;9.08;79.04
80180;BME280;69505;52.134;5.438;2023-05-16T06:30:49;102306.34;;;9.24;78.92
80180;BME280;69505;52.134;5.438;2023-05-16T06:33:17;102298.16;;;9.29;76.82
80180;BME280;69505;52.134;5.438;2023-05-16T06:35:44;102305.03;;;9.33;77.15
80180;BME280;69505;52.134;5.438;2023-05-16T06:38:11;102303.47;;;9.29;75.75
80180;BME280;69505;52.134;5.438;2023-05-16T06:40:37;102307.75;;;9.31;75.75
80180;BME280;69505;52.134;5.438;2023-05-16T06:43:04;102301.59;;;9.31;76.39
80180;BME280;69505;52.134;5.438;2023-05-16T06:45:30;102304.75;;;9.39;76.61
80180;BME280;69505;52.134;5.438;2023-05-16T06:47:57;102304.22;;;9.50;76.04
80180;BME280;69505;52.134;5.438;2023-05-16T06:50:23;102301.09;;;9.59;75.61
80180;BME280;69505;52.134;5.438;2023-05-16T06:52:50;102300.06;;;9.81;75.60
80180;BME280;69505;52.134;5.438;2023-05-16T06:55:16;102297.53;;;9.95;74.50
80180;BME280;69505;52.134;5.438;2023-05-16T06:57:43;102309.13;;;9.94;75.82
80180;BME280;69505;52.134;5.438;2023-05-16T07:00:10;102314.97;;;10.01;73.12
80180;BME280;69505;52.134;5.438;2023-05-16T07:02:37;102311.16;;;10.06;74.96
80180;BME280;69505;52.134;5.438;2023-05-16T07:05:05;102313.31;;;10.15;73.99
80180;BME280;69505;52.134;5.438;2023-05-16T07:07:32;102311.44;;;10.18;72.62
80180;BME280;69505;52.134;5.438;2023-05-16T07:09:58;102314.28;;;10.32;71.16
80180;BME280;69505;52.134;5.438;2023-05-16T07:12:25;102320.38;;;10.34;69.76
80180;BME280;69505;52.134;5.438;2023-05-16T07:14:52;102314.19;;;10.51;71.67
80180;BME280;69505;52.134;5.438;2023-05-16T07:17:18;102313.41;;;10.49;68.60
80180;BME280;69505;52.134;5.438;2023-05-16T07:19:45;102300.38;;;10.44;68.40
80180;BME280;69505;52.134;5.438;2023-05-16T07:22:11;102314.72;;;10.57;68.64
80180;BME280;69505;52.134;5.438;2023-05-16T07:24:38;102321.53;;;10.79;68.27
80180;BME280;69505;52.134;5.438;2023-05-16T07:27:05;102319.66;;;10.81;68.74
80180;BME280;69505;52.134;5.438;2023-05-16T07:29:32;102311.84;;;10.94;69.72
80180;BME280;69505;52.134;5.438;2023-05-16T07:31:58;102321.63;;;10.93;68.84
80180;BME280;69505;52.134;5.438;2023-05-16T07:34:25;102321.50;;;10.96;69.18
80180;BME280;69505;52.134;5.438;2023-05-16T07:36:51;102321.63;;;10.93;67.66
80180;BME280;69505;52.134;5.438;2023-05-16T07:39:18;102320.34;;;10.69;68.59
80180;BME280;69505;52.134;5.438;2023-05-16T07:41:44;102322.25;;;10.99;69.88
80180;BME280;69505;52.134;5.438;2023-05-16T07:44:11;102311.13;;;12.75;65.30
80180;BME280;69505;52.134;5.438;2023-05-16T07:46:38;102306.44;;;13.89;60.33
80180;BME280;69505;52.134;5.438;2023-05-16T07:49:05;102304.03;;;13.31;62.02
80180;BME280;69505;52.134;5.438;2023-05-16T07:51:31;102307.72;;;15.11;55.99
80180;BME280;69505;52.134;5.438;2023-05-16T07:53:58;102303.09;;;15.98;53.81
80180;BME280;69505;52.134;5.438;2023-05-16T07:56:25;102307.72;;;15.72;54.80
80180;BME280;69505;52.134;5.438;2023-05-16T07:58:51;102323.22;;;14.56;56.44
80180;BME280;69505;52.134;5.438;2023-05-16T08:01:18;102338.19;;;13.25;61.13
80180;BME280;69505;52.134;5.438;2023-05-16T08:03:45;102358.28;;;12.30;69.34
80180;BME280;69505;52.134;5.438;2023-05-16T08:06:12;102360.41;;;10.97;79.85
80180;BME280;69505;52.134;5.438;2023-05-16T08:08:38;102355.66;;;10.71;80.07
80180;BME280;69505;52.134;5.438;2023-05-16T08:11:05;102356.75;;;10.49;78.46
80180;BME280;69505;52.134;5.438;2023-05-16T08:13:31;102355.75;;;10.34;81.92
80180;BME280;69505;52.134;5.438;2023-05-16T08:15:58;102353.16;;;10.33;83.62
80180;BME280;69505;52.134;5.438;2023-05-16T08:18:25;102351.09;;;10.40;83.49
80180;BME280;69505;52.134;5.438;2023-05-16T08:20:51;102340.31;;;13.05;78.58
80180;BME280;69505;52.134;5.438;2023-05-16T08:23:18;102332.53;;;15.26;70.08
80180;BME280;69505;52.134;5.438;2023-05-16T08:25:44;102330.41;;;17.18;64.44
80180;BME280;69505;52.134;5.438;2023-05-16T08:28:11;102326.72;;;18.06;56.36
80180;BME280;69505;52.134;5.438;2023-05-16T08:30:38;102332.41;;;17.48;54.04
80180;BME280;69505;52.134;5.438;2023-05-16T08:33:08;102322.63;;;18.12;61.85
80180;BME280;69505;52.134;5.438;2023-05-16T08:35:35;102314.63;;;19.04;58.13
80180;BME280;69505;52.134;5.438;2023-05-16T08:38:02;102310.47;;;19.40;55.74
80180;BME280;69505;52.134;5.438;2023-05-16T08:40:28;102311.97;;;20.50;53.96
80180;BME280;69505;52.134;5.438;2023-05-16T08:42:55;102313.31;;;20.74;49.65
80180;BME280;69505;52.134;5.438;2023-05-16T08:45:22;102328.66;;;18.77;54.53
80180;BME280;69505;52.134;5.438;2023-05-16T08:47:49;102321.22;;;16.41;55.38
80180;BME280;69505;52.134;5.438;2023-05-16T08:50:19;102331.31;;;14.42;61.32
80180;BME280;69505;52.134;5.438;2023-05-16T08:52:46;102330.78;;;13.30;63.17
80180;BME280;69505;52.134;5.438;2023-05-16T08:55:19;102326.91;;;12.92;67.86
80180;BME280;69505;52.134;5.438;2023-05-16T08:57:50;102333.56;;;14.23;61.40
80180;BME280;69505;52.134;5.438;2023-05-16T09:00:20;102332.09;;;14.70;60.45
80180;BME280;69505;52.134;5.438;2023-05-16T09:02:48;102328.34;;;16.07;56.67
80180;BME280;69505;52.134;5.438;2023-05-16T09:05:16;102321.31;;;16.29;53.38
80180;BME280;69505;52.134;5.438;2023-05-16T09:07:44;102318.97;;;17.48;59.22
80180;BME280;69505;52.134;5.438;2023-05-16T09:10:12;102329.66;;;16.71;53.02
80180;BME280;69505;52.134;5.438;2023-05-16T09:12:39;102338.97;;;15.85;57.15
80180;BME280;69505;52.134;5.438;2023-05-16T09:15:07;102337.88;;;15.26;60.26
80180;BME280;69505;52.134;5.438;2023-05-16T09:17:45;102344.63;;;14.69;58.86
80180;BME280;69505;52.134;5.438;2023-05-16T09:20:17;102344.31;;;15.23;62.39
80180;BME280;69505;52.134;5.438;2023-05-16T09:22:53;102342.69;;;14.84;56.49
80180;BME280;69505;52.134;5.438;2023-05-16T09:25:22;102345.94;;;14.24;57.27
80180;BME280;69505;52.134;5.438;2023-05-16T09:27:55;102348.00;;;13.53;60.68
80180;BME280;69505;52.134;5.438;2023-05-16T09:30:27;102339.59;;;13.99;62.78
80180;BME280;69505;52.134;5.438;2023-05-16T09:32:54;102336.16;;;14.88;55.65
80180;BME280;69505;52.134;5.438;2023-05-16T09:35:21;102339.47;;;14.53;58.06
80180;BME280;69505;52.134;5.438;2023-05-16T09:38:16;102338.41;;;14.81;52.42
80180;BME280;69505;52.134;5.438;2023-05-16T09:40:44;102338.06;;;14.35;56.82
80180;BME280;69505;52.134;5.438;2023-05-16T09:43:14;102341.59;;;14.48;55.61
80180;BME280;69505;52.134;5.438;2023-05-16T09:45:47;102342.72;;;15.21;53.98
80180;BME280;69505;52.134;5.438;2023-05-16T09:48:15;102342.66;;;16.30;53.06
80180;BME280;69505;52.134;5.438;2023-05-16T09:50:47;102338.13;;;16.19;51.18
80180;BME280;69505;52.134;5.438;2023-05-16T09:53:16;102345.31;;;15.83;52.37
80180;BME280;69505;52.134;5.438;2023-05-16T09:55:43;102352.38;;;15.85;55.88
80180;BME280;69505;52.134;5.438;2023-05-16T09:58:10;102353.25;;;14.98;53.18
80180;BME280;69505;52.134;5.438;2023-05-16T10:00:36;102337.50;;;15.07;48.52
80180;BME280;69505;52.134;5.438;2023-05-16T10:03:03;102337.38;;;15.21;49.67
80180;BME280;69505;52.134;5.438;2023-05-16T10:05:31;102332.28;;;15.42;52.54
80180;BME280;69505;52.134;5.438;2023-05-16T10:08:01;102327.03;;;15.89;48.64
80180;BME280;69505;52.134;5.438;2023-05-16T10:10:29;102326.13;;;15.53;53.88
80180;BME280;69505;52.134;5.438;2023-05-16T10:12:57;102326.97;;;15.29;50.98
80180;BME280;69505;52.134;5.438;2023-05-16T10:15:26;102342.31;;;15.14;55.93
80180;BME280;69505;52.134;5.438;2023-05-16T10:17:55;102333.34;;;15.63;49.23
80180;BME280;69505;52.134;5.438;2023-05-16T10:20:25;102335.94;;;15.65;54.57
80180;BME280;69505;52.134;5.438;2023-05-16T10:22:54;102356.31;;;15.18;49.85
80180;BME280;69505;52.134;5.438;2023-05-16T10:25:31;102345.69;;;14.67;50.84
80180;BME280;69505;52.134;5.438;2023-05-16T10:27:58;102346.38;;;15.07;50.28
80180;BME280;69505;52.134;5.438;2023-05-16T10:30:26;102335.34;;;15.49;50.14
80180;BME280;69505;52.134;5.438;2023-05-16T10:32:52;102337.13;;;15.85;51.20
80180;BME280;69505;52.134;5.438;2023-05-16T10:35:20;102327.78;;;15.67;50.43
80180;BME280;69505;52.134;5.438;2023-05-16T10:37:48;102338.03;;;15.49;50.48
80180;BME280;69505;52.134;5.438;2023-05-16T10:40:16;102335.16;;;15.76;50.81
80180;BME280;69505;52.134;5.438;2023-05-16T10:42:53;102323.44;;;16.01;51.07
80180;BME280;69505;52.134;5.438;2023-05-16T10:45:21;102333.53;;;15.97;49.44
80180;BME280;69505;52.134;5.438;2023-05-16T10:48:02;102340.91;;;15.82;50.64
80180;BME280;69505;52.134;5.438;2023-05-16T10:50:38;102333.88;;;15.45;54.54
80180;BME280;69505;52.134;5.438;2023-05-16T10:53:12;102341.97;;;15.19;54.06
80180;BME280;69505;52.134;5.438;2023-05-16T10:55:39;102334.16;;;15.16;54.05
80180;BME280;69505;52.134;5.438;2023-05-16T10:58:09;102336.22;;;15.12;52.82
80180;BME280;69505;52.134;5.438;2023-05-16T11:00:38;102341.41;;;15.63;49.94
80180;BME280;69505;52.134;5.438;2023-05-16T11:03:05;102343.09;;;15.77;51.24
80180;BME280;69505;52.134;5.438;2023-05-16T11:05:33;102327.56;;;15.94;51.60
80180;BME280;69505;52.134;5.438;2023-05-16T11:08:06;102337.66;;;16.26;51.77
80180;BME280;69505;52.134;5.438;2023-05-16T11:10:33;102331.81;;;16.32;46.70
80180;BME280;69505;52.134;5.438;2023-05-16T11:13:07;102343.94;;;16.13;47.67
80180;BME280;69505;52.134;5.438;2023-05-16T11:15:34;102337.13;;;16.09;47.51
80180;BME280;69505;52.134;5.438;2023-05-16T11:18:06;102343.13;;;15.65;44.62
80180;BME280;69505;52.134;5.438;2023-05-16T11:20:35;102346.50;;;15.18;48.85
80180;BME280;69505;52.134;5.438;2023-05-16T11:25:44;102346.06;;;15.12;50.15
80180;BME280;69505;52.134;5.438;2023-05-16T11:28:12;102347.47;;;15.05;49.05
80180;BME280;69505;52.134;5.438;2023-05-16T11:30:44;102343.69;;;15.20;50.26
80180;BME280;69505;52.134;5.438;2023-05-16T11:33:11;102347.41;;;14.80;50.89
80180;BME280;69505;52.134;5.438;2023-05-16T11:35:38;102349.03;;;14.57;50.50
80180;BME280;69505;52.134;5.438;2023-05-16T11:38:05;102356.53;;;14.25;52.28
80180;BME280;69505;52.134;5.438;2023-05-16T11:40:41;102355.34;;;14.16;52.14
80180;BME280;69505;52.134;5.438;2023-05-16T11:43:07;102364.28;;;14.02;51.12
80180;BME280;69505;52.134;5.438;2023-05-16T11:45:34;102365.03;;;14.05;54.02
80180;BME280;69505;52.134;5.438;2023-05-16T11:48:02;102361.25;;;14.21;53.49
80180;BME280;69505;52.134;5.438;2023-05-16T11:50:33;102362.13;;;14.35;51.14
80180;BME280;69505;52.134;5.438;2023-05-16T11:53:01;102359.25;;;13.98;51.27
80180;BME280;69505;52.134;5.438;2023-05-16T11:55:29;102359.47;;;13.95;57.54
80180;BME280;69505;52.134;5.438;2023-05-16T11:58:00;102367.16;;;13.99;55.16
80180;BME280;69505;52.134;5.438;2023-05-16T12:00:27;102365.91;;;14.05;54.42
80180;BME280;69505;52.134;5.438;2023-05-16T12:02:59;102361.56;;;13.90;57.61
80180;BME280;69505;52.134;5.438;2023-05-16T12:05:28;102363.91;;;13.81;55.81
80180;BME280;69505;52.134;5.438;2023-05-16T12:07:57;102366.03;;;13.76;57.28
80180;BME280;69505;52.134;5.438;2023-05-16T12:10:25;102372.47;;;13.87;56.09
80180;BME280;69505;52.134;5.438;2023-05-16T12:12:52;102374.72;;;14.20;54.74
80180;BME280;69505;52.134;5.438;2023-05-16T12:15:20;102365.63;;;14.23;53.82
80180;BME280;69505;52.134;5.438;2023-05-16T12:17:47;102373.88;;;14.32;57.96
80180;BME280;69505;52.134;5.438;2023-05-16T12:20:14;102375.19;;;14.52;56.25
80180;BME280;69505;52.134;5.438;2023-05-16T12:22:43;102371.97;;;14.47;54.59
80180;BME280;69505;52.134;5.438;2023-05-16T12:27:59;102374.38;;;13.85;57.25
80180;BME280;69505;52.134;5.438;2023-05-16T12:30:27;102373.00;;;13.65;58.44
80180;BME280;69505;52.134;5.438;2023-05-16T12:35:24;102376.75;;;13.62;55.61
80180;BME280;69505;52.134;5.438;2023-05-16T12:37:51;102381.72;;;13.54;56.70
80180;BME280;69505;52.134;5.438;2023-05-16T12:40:18;102375.00;;;13.75;60.14
80180;BME280;69505;52.134;5.438;2023-05-16T12:42:49;102387.34;;;13.91;58.23
80180;BME280;69505;52.134;5.438;2023-05-16T12:45:17;102383.50;;;13.95;59.39
80180;BME280;69505;52.134;5.438;2023-05-16T12:47:44;102378.34;;;13.92;61.94
80180;BME280;69505;52.134;5.438;2023-05-16T12:50:13;102375.94;;;14.01;59.63
80180;BME280;69505;52.134;5.438;2023-05-16T12:52:49;102372.22;;;14.70;60.76
80180;BME280;69505;52.134;5.438;2023-05-16T12:55:17;102376.72;;;14.82;57.04
80180;BME280;69505;52.134;5.438;2023-05-16T12:57:44;102372.34;;;14.68;57.96
80180;BME280;69505;52.134;5.438;2023-05-16T13:00:12;102369.41;;;14.46;58.20
80180;BME280;69505;52.134;5.438;2023-05-16T13:02:39;102377.41;;;14.33;60.69
80180;BME280;69505;52.134;5.438;2023-05-16T13:05:06;102376.66;;;14.31;58.50
80180;BME280;69505;52.134;5.438;2023-05-16T13:07:33;102371.34;;;14.04;58.85
80180;BME280;69505;52.134;5.438;2023-05-16T13:10:00;102381.84;;;13.79;56.09
80180;BME280;69505;52.134;5.438;2023-05-16T13:12:27;102378.84;;;13.71;57.00
80180;BME280;69505;52.134;5.438;2023-05-16T13:14:54;102371.97;;;13.67;60.21
80180;BME280;69505;52.134;5.438;2023-05-16T13:17:21;102378.00;;;13.84;58.91